Flight Track Log - Related Links

Times and Time Zones

All times are in EDT time to prevent confusion due to time zone crossing. See the N771FF flight status page for this flight to view local times or setup timezone preferences in your user account.

Time Position Orientation Groundspeed Altitude Reporting Facility
EDT Latitude Longitude Course Direction KTS MPH feet Rate Location/Type
Fri 05:07:26 PM 39.9000 -75.2333 270° West 134 154 600  Level Philadelphia TRACON
Fri 05:08:02 PM 39.9000 -75.2667 270° West 145 167 1,600 1,813 Climbing Philadelphia TRACON
Fri 05:09:02 PM 39.9167 -75.3167 294° West 161 185 3,500 1,800 Climbing Philadelphia TRACON
Fri 05:10:02 PM 39.9167 -75.3833 270° West 161 185 5,200 1,576 Climbing Philadelphia TRACON
Fri 05:11:00 PM 39.9175 -75.4261 271° West 168 193 6,600 1,475 Climbing New York Center
Fri 05:12:00 PM 39.9067 -75.4850 257° West 168 193 8,100 1,250 Climbing New York Center
Fri 05:13:00 PM 39.8894 -75.5489 251° West 180 207 9,100 1,300 Climbing New York Center
Fri 05:14:00 PM 39.8883 -75.6325 269° West 207 238 10,700 1,550 Climbing New York Center
Fri 05:15:00 PM 39.8689 -75.6933 247° West 202 232 12,200 1,512 Climbing New York Center
Fri 05:16:03 PM 39.8472 -75.7675 249° West 202 232 13,800 1,500 Climbing New York Center
Fri 05:17:00 PM 39.8219 -75.8225 239° Southwest 207 238 15,200 1,424 Climbing New York Center
Fri 05:18:01 PM 39.7858 -75.8847 233° Southwest 207 238 16,600 1,376 Climbing New York Center
Fri 05:19:37 PM 39.7256 -75.9772 230° Southwest 207 238 18,800 1,299 Climbing Washington Center
Fri 05:20:38 PM 39.6900 -76.0364 232° Southwest 207 238 20,000 1,140 Climbing Washington Center
Fri 05:21:38 PM 39.6500 -76.0956 229° Southwest 207 238 21,100 1,210 Climbing Washington Center
Fri 05:22:37 PM 39.6144 -76.1600 234° Southwest 213 245 22,400 1,261 Climbing Washington Center
Fri 05:23:37 PM 39.5744 -76.2161 227° Southwest 213 245 23,600 1,033 Climbing Washington Center
Fri 05:24:39 PM 39.5386 -76.2750 232° Southwest 213 245 24,500 950 Climbing Washington Center
Fri 05:25:37 PM 39.5008 -76.3283 227° Southwest 218 251 25,500 939 Climbing Washington Center
Fri 05:27:00 PM 39.4203 -76.4279 229° Southwest  Level FlightAware Approximate
Fri 05:27:38 PM 39.4250 -76.4514 229° Southwest 218 251 27,300  Level Washington Center
Fri 05:28:39 PM 39.3789 -76.5178 228° Southwest 224 258 27,800 353 Climbing Washington Center
Fri 05:29:37 PM 39.3386 -76.5817 231° Southwest 237 273 28,000 102 Climbing Washington Center
Fri 05:30:37 PM 39.2858 -76.6614 229° Southwest 256 295 28,000  Level Washington Center
Fri 05:31:38 PM 39.2350 -76.7439 232° Southwest 287 330 28,000  Level Washington Center
Fri 05:33:37 PM 39.1228 -76.9214 231° Southwest 320 368 28,000  Level Washington Center
Fri 05:34:37 PM 39.0675 -77.0086 231° Southwest 320 368 28,000  Level Washington Center
Fri 05:35:39 PM 39.0019 -77.0875 223° Southwest 320 368 28,000  Level Washington Center
Fri 05:36:38 PM 38.9322 -77.1608 219° Southwest 320 368 28,000  Level Washington Center
Fri 05:37:38 PM 38.8647 -77.2367 221° Southwest 325 374 28,000  Level Washington Center
Fri 05:38:39 PM 38.7947 -77.3122 220° Southwest 325 374 28,000  Level Washington Center
Fri 05:39:37 PM 38.7247 -77.3906 221° Southwest 331 381 28,000  Level Washington Center
Fri 05:40:37 PM 38.6569 -77.4658 221° Southwest 331 381 28,000  Level Washington Center
Fri 05:41:38 PM 38.5786 -77.5464 219° Southwest 331 381 28,000  Level Washington Center
Fri 05:42:39 PM 38.5106 -77.6214 221° Southwest 331 381 28,000  Level Washington Center
Fri 05:43:37 PM 38.4425 -77.6964 221° Southwest 331 381 28,000  Level Washington Center
Fri 05:44:38 PM 38.3744 -77.7686 220° Southwest 331 381 28,000  Level Washington Center
Fri 05:45:39 PM 38.3064 -77.8408 220° Southwest 331 381 28,000  Level Washington Center
Fri 05:46:37 PM 38.2383 -77.9153 221° Southwest 331 381 28,000  Level Washington Center
Fri 05:47:37 PM 38.1703 -77.9872 220° Southwest 331 381 28,000  Level Washington Center
Fri 05:48:39 PM 38.1019 -78.0589 220° Southwest 331 381 28,000  Level Washington Center
Fri 05:49:39 PM 38.0317 -78.1331 220° Southwest 331 381 28,000  Level Washington Center
Fri 05:50:37 PM 37.9697 -78.2022 221° Southwest 317 365 28,000  Level Washington Center
Fri 05:51:38 PM 37.8972 -78.2706 217° Southwest 322 371 28,000  Level Washington Center
Fri 05:52:39 PM 37.8311 -78.3314 216° Southwest 327 376 28,000  Level Washington Center
Fri 05:53:37 PM 37.7589 -78.3972 216° Southwest 327 376 28,000  Level Washington Center
Fri 05:54:38 PM 37.6883 -78.4681 218° Southwest 327 376 28,000  Level Washington Center
Fri 05:55:38 PM 37.6158 -78.5361 217° Southwest 327 376 28,000  Level Washington Center
Fri 05:56:39 PM 37.5550 -78.6281 230° Southwest 327 376 28,000  Level Washington Center
Fri 05:57:39 PM 37.4986 -78.7147 231° Southwest 322 371 28,000  Level Washington Center
Fri 05:58:39 PM 37.4442 -78.8014 232° Southwest 322 371 28,000  Level Washington Center
Fri 05:59:38 PM 37.3875 -78.8853 230° Southwest 322 371 28,000  Level Washington Center
Fri 06:00:38 PM 37.3397 -78.9617 232° Southwest 322 371 28,000  Level Washington Center
Fri 06:01:39 PM 37.2728 -79.0344 221° Southwest 322 371 28,000  Level Washington Center
Fri 06:02:37 PM 37.1942 -79.0908 210° Southwest 322 371 28,000  Level Washington Center
Fri 06:03:37 PM 37.1192 -79.1525 213° Southwest 328 377 28,000  Level Washington Center
Fri 06:04:38 PM 37.0444 -79.2114 212° Southwest 333 383 28,000  Level Washington Center
Fri 06:05:38 PM 36.9611 -79.2753 211° Southwest 333 383 28,000  Level Washington Center
Fri 06:06:39 PM 36.8781 -79.3258 206° Southwest 333 383 28,000  Level Washington Center
Fri 06:07:38 PM 36.7994 -79.3739 206° Southwest 328 377 28,000  Level Washington Center
Fri 06:08:38 PM 36.7167 -79.4217 205° Southwest 323 372 28,000  Level Washington Center
Fri 06:09:37 PM 36.6444 -79.4619 204° Southwest 328 377 28,000  Level Washington Center
Fri 06:10:37 PM 36.5636 -79.5097 205° Southwest 328 377 28,000  Level Washington Center
Fri 06:11:38 PM 36.4789 -79.5469 199° South 328 377 28,000  Level Washington Center
Fri 06:13:09 PM 36.3469 -79.5975 197° South 330 380 28,000  Level Atlanta Center
Fri 06:14:09 PM 36.2606 -79.6306 197° South 330 380 28,000  Level Atlanta Center
Fri 06:15:09 PM 36.1681 -79.6689 198° South 325 374 28,000  Level Atlanta Center
Fri 06:16:09 PM 36.0839 -79.7017 197° South 325 374 28,000  Level Atlanta Center
Fri 06:17:09 PM 35.9975 -79.7372 198° South 320 368 28,000  Level Atlanta Center
Fri 06:18:09 PM 35.9153 -79.7722 199° South 320 368 28,000  Level Atlanta Center
Fri 06:19:09 PM 35.8389 -79.7969 195° South 320 368 28,000  Level Atlanta Center
Fri 06:20:09 PM 35.7522 -79.8217 193° South 320 368 28,000  Level Atlanta Center
Fri 06:21:09 PM 35.6767 -79.8717 208° Southwest 315 362 28,000  Level Atlanta Center
Fri 06:22:09 PM 35.5911 -79.9322 210° Southwest 320 368 28,000  Level Atlanta Center
Fri 06:23:09 PM 35.5156 -79.9819 208° Southwest 320 368 28,000  Level Atlanta Center
Fri 06:24:09 PM 35.4483 -80.0261 208° Southwest 320 368 28,000  Level Atlanta Center
Fri 06:25:09 PM 35.3706 -80.0783 209° Southwest 320 368 28,000  Level Atlanta Center
Fri 06:26:09 PM 35.2950 -80.1278 208° Southwest 315 362 28,000  Level Atlanta Center
Fri 06:27:09 PM 35.2194 -80.1769 208° Southwest 315 362 28,000  Level Atlanta Center
Fri 06:28:09 PM 35.1436 -80.2264 208° Southwest 315 362 28,000  Level Atlanta Center
Fri 06:29:09 PM 35.0597 -80.2808 208° Southwest 315 362 28,000  Level Atlanta Center
Fri 06:32:29 PM 34.8036 -80.4478 208° Southwest 314 361 28,000  Level Jacksonville Center
Fri 06:33:29 PM 34.7253 -80.4956 207° Southwest 309 356 28,000  Level Jacksonville Center
Fri 06:34:29 PM 34.6425 -80.5281 198° South 309 356 28,000  Level Jacksonville Center
Fri 06:35:29 PM 34.5639 -80.5628 200° South 316 364 28,000  Level Jacksonville Center
Fri 06:36:29 PM 34.4811 -80.5981 199° South 311 358 28,000  Level Jacksonville Center
Fri 06:37:29 PM 34.3961 -80.6303 197° South 317 365 28,000  Level Jacksonville Center
Fri 06:38:29 PM 34.3153 -80.6650 200° South 317 365 28,000  Level Jacksonville Center
Fri 06:39:29 PM 34.2344 -80.6922 196° South 329 379 28,000  Level Jacksonville Center
Fri 06:40:29 PM 34.1433 -80.7297 199° South 321 369 28,000  Level Jacksonville Center
Fri 06:41:29 PM 34.0647 -80.7617 199° South 321 369 28,000  Level Jacksonville Center
Fri 06:42:29 PM 33.9797 -80.7964 199° South 321 369 28,000  Level Jacksonville Center
Fri 06:43:29 PM 33.8947 -80.8283 197° South 327 376 28,000  Level Jacksonville Center
Fri 06:44:29 PM 33.8139 -80.8628 199° South 327 376 28,000  Level Jacksonville Center
Fri 06:45:29 PM 33.7308 -80.8947 198° South 321 369 28,000  Level Jacksonville Center
Fri 06:46:29 PM 33.6458 -80.9292 199° South 321 369 28,000  Level Jacksonville Center
Fri 06:47:29 PM 33.5650 -80.9608 198° South 321 369 28,000  Level Jacksonville Center
Fri 06:48:29 PM 33.4819 -80.9925 198° South 321 369 28,000  Level Jacksonville Center
Fri 06:49:29 PM 33.4011 -81.0267 199° South 321 369 28,000  Level Jacksonville Center
Fri 06:50:29 PM 33.3161 -81.0606 198° South 328 377 28,000  Level Jacksonville Center
Fri 06:51:29 PM 33.2308 -81.0922 197° South 323 372 28,000  Level Jacksonville Center
Fri 06:52:29 PM 33.1519 -81.1211 197° South 323 372 28,000  Level Jacksonville Center
Fri 06:53:29 PM 33.0711 -81.1550 199° South 323 372 28,000  Level Jacksonville Center
Fri 06:54:29 PM 32.9881 -81.1864 198° South 323 372 28,000  Level Jacksonville Center
Fri 06:55:29 PM 32.9111 -81.2175 199° South 323 372 28,000  Level Jacksonville Center
Fri 06:56:29 PM 32.8281 -81.2486 197° South 323 372 28,000  Level Jacksonville Center
Fri 06:57:29 PM 32.7450 -81.2822 199° South 323 372 28,000  Level Jacksonville Center
Fri 06:58:29 PM 32.6619 -81.3158 199° South 323 372 28,000  Level Jacksonville Center
Fri 06:59:29 PM 32.5789 -81.3492 199° South 318 366 28,000  Level Jacksonville Center
Fri 07:00:29 PM 32.4894 -81.3828 198° South 323 372 28,000  Level Jacksonville Center
Fri 07:01:29 PM 32.4064 -81.4161 199° South 323 372 28,000  Level Jacksonville Center
Fri 07:02:29 PM 32.3253 -81.4469 198° South 316 364 28,000  Level Jacksonville Center
Fri 07:03:29 PM 32.2483 -81.4753 197° South 322 371 28,000  Level Jacksonville Center
Fri 07:04:29 PM 32.1569 -81.5111 198° South 322 371 28,000  Level Jacksonville Center
Fri 07:05:29 PM 32.0739 -81.5442 199° South 322 371 28,000  Level Jacksonville Center
Fri 07:06:29 PM 31.9864 -81.5747 196° South 327 376 28,000  Level Jacksonville Center
Fri 07:07:29 PM 31.9011 -81.6103 199° South 333 383 28,000  Level Jacksonville Center
Fri 07:08:29 PM 31.8158 -81.6408 197° South 328 377 28,000  Level Jacksonville Center
Fri 07:09:29 PM 31.7389 -81.6686 197° South 320 368 28,000  Level Jacksonville Center
Fri 07:10:29 PM 31.6472 -81.7017 197° South 320 368 28,000  Level Jacksonville Center
Fri 07:11:29 PM 31.5619 -81.7247 193° South 320 368 28,000  Level Jacksonville Center
Fri 07:12:29 PM 31.4767 -81.7500 194° South 320 368 28,000  Level Jacksonville Center
Fri 07:13:29 PM 31.3994 -81.7731 194° South 320 368 28,000  Level Jacksonville Center
Fri 07:14:29 PM 31.3058 -81.8033 195° South 320 368 28,000  Level Jacksonville Center
Fri 07:15:29 PM 31.2206 -81.8308 195° South 320 368 28,000  Level Jacksonville Center
Fri 07:16:29 PM 31.1350 -81.8539 193° South 317 365 28,000  Level Jacksonville Center
Fri 07:17:29 PM 31.0517 -81.8789 194° South 317 365 28,000  Level Jacksonville Center
Fri 07:18:29 PM 30.9642 -81.9042 194° South 317 365 28,000  Level Jacksonville Center
Fri 07:19:29 PM 30.8808 -81.9292 194° South 317 365 28,000  Level Jacksonville Center
Fri 07:20:29 PM 30.7997 -81.9542 195° South 317 365 28,000  Level Jacksonville Center
Fri 07:21:29 PM 30.7122 -81.9792 194° South 317 365 28,000  Level Jacksonville Center
Fri 07:22:29 PM 30.6267 -82.0042 194° South 317 365 28,000  Level Jacksonville Center
Fri 07:23:29 PM 30.5517 -82.0242 193° South 317 365 28,000  Level Jacksonville Center
Fri 07:24:29 PM 30.4642 -82.0492 194° South 317 365 28,000  Level Jacksonville Center
Fri 07:25:29 PM 30.3786 -82.0739 194° South 317 365 28,000  Level Jacksonville Center
Fri 07:26:29 PM 30.2933 -82.0964 193° South 317 365 28,000 -50 Level Jacksonville Center
Fri 07:27:29 PM 30.2078 -82.1233 195° South 317 365 27,900 -450 Descending Jacksonville Center
Fri 07:28:29 PM 30.1158 -82.1169 177° South 317 365 27,100 -400 Descending Jacksonville Center
Fri 07:29:29 PM 30.0281 -82.0983 170° South 322 371 27,100 -50 Level Jacksonville Center
Fri 07:30:29 PM 29.9383 -82.0847 173° South 328 377 27,000 -50 Descending Jacksonville Center
Fri 07:31:29 PM 29.8506 -82.0664 170° South 328 377 27,000  Level Jacksonville Center
Fri 07:32:29 PM 29.7647 -82.0503 171° South 328 377 27,000  Level Jacksonville Center
Fri 07:33:29 PM 29.6686 -82.0272 168° South 328 377 27,000  Level Jacksonville Center
Fri 07:34:29 PM 29.5956 -82.0161 172° South 317 365 27,000  Level Jacksonville Center
Fri 07:35:29 PM 29.5097 -81.9978 169° South 312 359 27,000  Level Jacksonville Center
Fri 07:36:29 PM 29.4219 -81.9817 171° South 312 359 27,000  Level Jacksonville Center
Fri 07:37:29 PM 29.3361 -81.9658 171° South 312 359 27,000  Level Jacksonville Center
Fri 07:38:29 PM 29.2525 -81.9478 169° South 312 359 27,000  Level Jacksonville Center
Fri 07:39:29 PM 29.1586 -81.9272 169° South 312 359 27,000  Level Jacksonville Center
Fri 07:41:39 PM 28.9739 -81.8900 170° South 317 365 27,000  Level Miami Center
Fri 07:42:39 PM 28.8869 -81.8719 170° South 317 365 27,000  Level Miami Center
Fri 07:43:39 PM 28.8039 -81.8586 172° South 311 358 27,000  Level Miami Center
Fri 07:44:39 PM 28.7211 -81.8383 168° South 316 364 27,000  Level Miami Center
Fri 07:45:39 PM 28.6342 -81.8203 170° South 316 364 27,000  Level Miami Center
Fri 07:46:39 PM 28.5494 -81.8025 170° South 316 364 27,000  Level Miami Center
Fri 07:47:39 PM 28.4644 -81.7844 169° South 316 364 27,000  Level Miami Center
Fri 07:48:39 PM 28.3775 -81.7664 170° South 316 364 27,000  Level Miami Center
Fri 07:49:39 PM 28.2906 -81.7461 168° South 316 364 27,000 -150 Level Miami Center
Fri 07:50:39 PM 28.2036 -81.7258 168° South 316 364 26,700 -1,500 Descending Miami Center
Fri 07:51:39 PM 28.1125 -81.7033 168° South 321 369 24,000 -1,150 Descending Miami Center
Fri 07:52:39 PM 28.0172 -81.6803 168° South 336 387 24,400 -450 Climbing Miami Center
Fri 07:53:39 PM 27.9264 -81.6578 168° South 341 392 23,100 -1,350 Descending Miami Center
Fri 07:54:39 PM 27.8350 -81.6375 169° South 341 392 21,700 -1,450 Descending Miami Center
Fri 07:55:39 PM 27.7419 -81.6147 168° South 335 386 20,200 -1,400 Descending Miami Center
Fri 07:56:39 PM 27.6592 -81.5950 168° South 335 386 18,900 -1,400 Descending Miami Center
Fri 07:57:39 PM 27.5658 -81.5722 168° South 335 386 17,400 -1,500 Descending Miami Center
Fri 07:58:39 PM 27.4769 -81.5475 166° South 335 386 15,900 -1,545 Descending Miami Center
Fri 07:59:51 PM 27.3736 -81.5222 168° South 330 380 14,000 -1,455 Descending Miami Center
Fri 08:00:51 PM 27.2883 -81.5047 170° South 320 368 12,700 -1,200 Descending Miami Center
Fri 08:01:51 PM 27.2056 -81.4853 168° South 315 362 11,600 -1,200 Descending Miami Center
Fri 08:02:51 PM 27.1228 -81.4656 168° South 315 362 10,300 -1,200 Descending Miami Center
Fri 08:03:51 PM 27.0419 -81.4436 166° South 310 357 9,200 -650 Descending Miami Center
Fri 08:04:51 PM 26.9694 -81.4269 168° South 292 336 9,000 -100 Descending Miami Center
Fri 08:05:51 PM 26.8928 -81.4097 169° South 281 323 9,000  Level Miami Center
Fri 08:06:51 PM 26.8231 -81.4375 200° South 265 305 9,000  Level Miami Center
Fri 08:07:51 PM 26.7447 -81.4692 200° South 270 311 9,000 -500 Level Miami Center
Fri 08:08:51 PM 26.6708 -81.4964 198° South 275 316 8,000 -1,000 Descending Miami Center
Fri 08:10:00 PM 26.5787 -81.5146 207° Southwest  Level FlightAware Approximate
Fri 08:17:00 PM 26.1500 -81.7667 204° Southwest  Level FlightAware Approximate
Fri 08:18:00 PM 26.1524 -81.7756 204° Southwest  Level Estimated
Fri 08:19:00 PM 26.1524 -81.7756 204° Southwest  Level Estimated
Fri 08:20:00 PM 26.1524 -81.7756 204° Southwest  Level Estimated
Fri 08:21:00 PM 26.1524 -81.7756 204° Southwest  Level Estimated
Fri 08:22:00 PM 26.1524 -81.7756 204° Southwest  Level Estimated
Fri 08:23:00 PM 26.1524 -81.7756 204° Southwest  Level Estimated
Fri 08:24:00 PM 26.1524 -81.7756 204° Southwest  Level Estimated
Fri 08:25:00 PM 26.1524 -81.7756 204° Southwest  Level Estimated
Fri 08:26:00 PM 26.1524 -81.7756 204° Southwest  Level Estimated
Fri 08:27:00 PM 26.1524 -81.7756 204° Southwest  Level Estimated
Fri 08:28:00 PM 26.1524 -81.7756 204° Southwest  Level Estimated

Login

Don't have an account? Register now (free) for customized features, flight alerts, and more!